Seattle, Washington
Traffic Map
Current Weather Conditions
Seattle, Washington
Scattered Clouds
Scattered Clouds
59°
Feels Like: 59°
Wind Chill: 59° Ceiling: Unl
Heat Index: 59° Visibility: 8mi
Dew Point: 47° Wind: 6mph
Humidity: 64% Direction: 360° (N)
Pressure: 29.91in Gusts: 0mph
Raw Report DataKBFI 251653Z 36005KT 8SM FEW045 SCT200 15/08 A2991 RMK AO2 SLP129 T01500083
Traffic Incident Summary
Active as of:
Severity:
Category:
InformationThere was an issue retrieving the traffic information for this location. Please try a different location or try again shortly.
Advertisements
Track Severe Weather on mobile